Time;durP1;ratioP1;P1;durP2;ratioP2;P2;SDS_P1;SDS_P2;PMS_P1;PMS_P2;Temp;Humidity;BMP_temperature;BMP_pressure;BME280_temperature;BME280_humidity;BME280_pressure;Samples;Min_cycle;Max_cycle;Signal;HPM_P1;HPM_P2
2023/07/31 00:00:19;;;;;;;4.30;0.70;;;;;;;17.73;100.00;99264.86;108652;1254;61729;-49
2023/07/31 00:02:47;;;;;;;6.10;0.90;;;;;;;17.71;100.00;99263.79;108676;1254;58749;-49
2023/07/31 00:05:15;;;;;;;7.30;0.90;;;;;;;17.70;100.00;99263.13;108795;1256;75613;-49
2023/07/31 00:07:42;;;;;;;5.00;1.00;;;;;;;17.70;100.00;99267.48;108685;1254;68032;-49
2023/07/31 00:10:10;;;;;;;3.30;0.60;;;;;;;17.69;100.00;99268.46;108714;1254;71449;-49
2023/07/31 00:12:38;;;;;;;3.90;0.60;;;;;;;17.69;100.00;99268.33;108711;1255;62459;-49
2023/07/31 00:15:07;;;;;;;4.80;0.70;;;;;;;17.69;100.00;99267.75;107801;1255;60053;-48
2023/07/31 00:17:34;;;;;;;5.70;0.70;;;;;;;17.69;100.00;99265.74;105191;1254;73821;-48
2023/07/31 00:20:02;;;;;;;2.20;0.50;;;;;;;17.68;100.00;99265.30;108658;1254;68926;-50
2023/07/31 00:22:29;;;;;;;3.00;0.60;;;;;;;17.67;100.00;99261.75;106404;1254;72652;-49
2023/07/31 00:24:57;;;;;;;4.60;0.80;;;;;;;17.68;100.00;99260.59;104287;1254;63004;-48
2023/07/31 00:27:24;;;;;;;1.60;0.90;;;;;;;17.68;100.00;99257.27;108701;1254;59887;-51
2023/07/31 00:29:52;;;;;;;0.90;0.60;;;;;;;17.70;100.00;99258.02;108656;1255;73824;-50
2023/07/31 00:32:19;;;;;;;8.30;0.90;;;;;;;17.70;100.00;99261.27;104713;1255;67633;-50
2023/07/31 00:34:46;;;;;;;4.40;0.70;;;;;;;17.68;100.00;99264.36;104033;1256;71375;-49
2023/07/31 00:37:15;;;;;;;3.30;0.60;;;;;;;17.63;100.00;99265.33;104323;1254;61710;-49
2023/07/31 00:39:42;;;;;;;4.70;0.50;;;;;;;17.60;100.00;99260.16;104264;1256;60429;-49
2023/07/31 00:42:09;;;;;;;7.80;0.60;;;;;;;17.59;100.00;99258.44;104150;1258;72604;-49
2023/07/31 00:44:37;;;;;;;4.10;0.60;;;;;;;17.58;100.00;99262.64;104185;1256;67682;-49
2023/07/31 00:47:05;;;;;;;0.70;0.60;;;;;;;17.59;100.00;99267.54;104080;1259;71408;-49
2023/07/31 00:49:32;;;;;;;2.70;0.70;;;;;;;17.59;100.00;99272.22;104855;1256;60602;-48
2023/07/31 00:51:59;;;;;;;9.60;0.70;;;;;;;17.59;100.00;99272.21;104125;1254;60557;-48
2023/07/31 00:54:27;;;;;;;6.70;0.60;;;;;;;17.55;100.00;99269.84;104270;1256;72920;-50
2023/07/31 00:56:54;;;;;;;14.70;0.70;;;;;;;17.49;100.00;99270.69;104272;1256;66737;-50
2023/07/31 00:59:21;;;;;;;3.10;0.50;;;;;;;17.45;100.00;99268.13;104221;1256;74677;-50
2023/07/31 01:01:49;;;;;;;2.90;0.70;;;;;;;17.43;100.00;99265.95;104158;1254;60635;-50
2023/07/31 01:04:17;;;;;;;4.40;0.70;;;;;;;17.42;100.00;99268.96;104210;1259;59463;-50
2023/07/31 01:06:49;;;;;;;1.60;0.60;;;;;;;17.42;100.00;99273.31;104165;1255;75874;-49
2023/07/31 01:09:46;;;;;;;3.40;0.60;;;;;;;17.41;100.00;99276.43;108275;1255;66634;-50
2023/07/31 01:12:16;;;;;;;1.50;0.60;;;;;;;17.42;100.00;99278.41;104463;1254;71417;-49
2023/07/31 01:15:10;;;;;;;1.40;0.70;;;;;;;17.42;100.00;99283.30;104836;1254;60566;-48
2023/07/31 01:17:39;;;;;;;6.10;0.60;;;;;;;17.43;100.00;99282.32;105451;1254;260343;-49
2023/07/31 01:22:08;;;;;;;6.20;0.70;;;;;;;17.39;100.00;99314.50;101548;1292;600324;-51
2023/07/31 01:24:41;;;;;;;4.70;0.60;;;;;;;17.34;100.00;99319.29;104006;1266;60481;-51
2023/07/31 01:27:17;;;;;;;2.60;0.70;;;;;;;17.34;100.00;99312.96;104672;1267;60070;-50
2023/07/31 01:30:10;;;;;;;2.50;0.60;;;;;;;17.34;100.00;99309.85;104828;1267;72311;-50
2023/07/31 01:32:39;;;;;;;2.10;0.60;;;;;;;17.34;100.00;99310.73;104238;1267;68462;-48
2023/07/31 01:35:08;;;;;;;2.20;0.50;;;;;;;17.34;100.00;99302.93;104281;1264;241276;-47
2023/07/31 01:37:35;;;;;;;1.70;0.60;;;;;;;17.33;100.00;99305.56;104040;1263;62289;-48
2023/07/31 01:40:05;;;;;;;2.00;0.60;;;;;;;17.32;100.00;99295.70;104211;1264;60013;-50
2023/07/31 01:42:32;;;;;;;2.50;0.60;;;;;;;17.31;100.00;99295.42;104383;1267;70888;-47
2023/07/31 01:45:00;;;;;;;1.80;0.70;;;;;;;17.30;100.00;99297.15;104360;1264;68386;-46
2023/07/31 01:47:27;;;;;;;3.40;0.60;;;;;;;17.27;100.00;99299.42;104235;1263;73108;-48
2023/07/31 01:49:55;;;;;;;1.30;1.10;;;;;;;17.23;100.00;99298.80;104088;1269;61715;-49
2023/07/31 01:52:23;;;;;;;1.30;0.70;;;;;;;17.21;100.00;99299.66;104279;1264;59803;-49
2023/07/31 01:54:50;;;;;;;2.40;0.70;;;;;;;17.20;100.00;99296.52;104055;1267;73504;-50
2023/07/31 01:57:17;;;;;;;2.30;0.60;;;;;;;17.19;100.00;99301.52;103766;1266;66915;-49
2023/07/31 01:59:45;;;;;;;4.10;0.50;;;;;;;17.18;100.00;99305.02;103511;1269;74942;-49
2023/07/31 02:02:13;;;;;;;3.10;0.60;;;;;;;17.18;100.00;99306.80;104203;1266;60426;-49
2023/07/31 02:04:40;;;;;;;5.00;0.60;;;;;;;17.18;100.00;99304.46;106905;1264;60004;-49
2023/07/31 02:07:08;;;;;;;1.90;0.60;;;;;;;17.18;100.00;99296.00;103612;1264;76146;-48
2023/07/31 02:09:35;;;;;;;7.70;1.10;;;;;;;17.14;100.00;99294.46;104233;1256;66660;-49
2023/07/31 02:12:03;;;;;;;3.00;0.60;;;;;;;17.05;100.00;99296.65;104316;1251;74431;-48
2023/07/31 02:14:30;;;;;;;1.80;0.60;;;;;;;16.96;100.00;99292.70;104571;1254;60863;-49
2023/07/31 02:16:57;;;;;;;2.50;0.80;;;;;;;16.90;100.00;99288.83;104602;1254;60554;-49
2023/07/31 02:19:25;;;;;;;4.80;0.60;;;;;;;16.88;100.00;99294.02;104356;1251;74609;-49
2023/07/31 02:21:52;;;;;;;1.50;0.60;;;;;;;16.88;100.00;99293.36;104361;1253;66792;-48
2023/07/31 02:24:20;;;;;;;4.10;0.70;;;;;;;16.89;100.00;99300.70;104403;1253;71463;-49
2023/07/31 02:26:47;;;;;;;4.60;0.80;;;;;;;16.90;100.00;99301.15;104408;1257;60402;-49
2023/07/31 02:29:14;;;;;;;4.50;0.80;;;;;;;16.92;100.00;99300.86;104393;1254;59682;-49
2023/07/31 02:31:42;;;;;;;4.70;0.80;;;;;;;16.92;100.00;99295.54;104305;1254;74179;-50
2023/07/31 02:34:10;;;;;;;2.10;0.60;;;;;;;16.94;100.00;99294.67;104141;1253;70176;-50
2023/07/31 02:36:37;;;;;;;2.70;0.60;;;;;;;16.95;100.00;99295.33;104275;1254;74666;-50
2023/07/31 02:39:05;;;;;;;6.00;0.60;;;;;;;16.93;100.00;99297.51;104390;1254;63317;-50
2023/07/31 02:41:32;;;;;;;1.70;0.60;;;;;;;16.89;100.00;99295.66;104377;1254;60536;-50
2023/07/31 02:43:59;;;;;;;2.70;0.60;;;;;;;16.89;100.00;99296.02;104496;1253;71417;-49
2023/07/31 02:46:27;;;;;;;2.00;0.70;;;;;;;16.90;100.00;99295.05;104322;1254;66450;-50
2023/07/31 02:48:54;;;;;;;5.50;0.70;;;;;;;16.91;100.00;99298.19;108687;1253;74471;-51
2023/07/31 02:51:22;;;;;;;1.30;0.60;;;;;;;16.94;100.00;99299.56;108903;1253;62697;-51
2023/07/31 02:53:49;;;;;;;1.60;0.60;;;;;;;16.95;100.00;99299.67;108851;1254;62185;-50
2023/07/31 02:56:17;;;;;;;4.20;0.70;;;;;;;16.97;100.00;99298.62;108863;1251;74897;-51
2023/07/31 02:58:44;;;;;;;3.90;0.70;;;;;;;16.98;100.00;99301.56;108988;1252;66252;-50
2023/07/31 03:01:11;;;;;;;4.50;0.60;;;;;;;16.99;100.00;99304.93;109052;1254;72686;-51
2023/07/31 03:03:40;;;;;;;3.10;0.60;;;;;;;16.98;100.00;99297.80;109037;1253;61662;-51
2023/07/31 03:06:08;;;;;;;0.70;0.70;;;;;;;16.99;100.00;99297.89;108875;1257;58728;-51
2023/07/31 03:08:36;;;;;;;2.20;0.50;;;;;;;17.01;100.00;99303.16;108805;1254;72550;-50
2023/07/31 03:11:03;;;;;;;7.70;0.80;;;;;;;17.04;100.00;99303.80;108789;1257;67541;-51
2023/07/31 03:13:31;;;;;;;2.70;0.50;;;;;;;17.07;100.00;99307.21;108869;1251;72149;-50
2023/07/31 03:15:58;;;;;;;0.80;0.60;;;;;;;17.11;100.00;99311.23;108589;1254;61602;-51
2023/07/31 03:18:26;;;;;;;4.70;0.80;;;;;;;17.17;100.00;99317.25;104250;1253;61271;-49
2023/07/31 03:20:53;;;;;;;1.80;0.80;;;;;;;17.23;100.00;99317.48;104456;1254;73628;-49
2023/07/31 03:23:20;;;;;;;2.90;0.80;;;;;;;17.29;100.00;99322.20;104393;1257;68154;-49
2023/07/31 03:25:58;;;;;;;1.80;0.60;;;;;;;17.36;100.00;99321.77;104605;1259;72808;-49
2023/07/31 03:28:28;;;;;;;6.20;1.00;;;;;;;17.46;100.00;99324.15;105170;1257;61686;-50
2023/07/31 03:30:55;;;;;;;2.30;0.90;;;;;;;17.52;100.00;99322.55;105828;1254;59646;-49
2023/07/31 03:33:22;;;;;;;2.40;0.90;;;;;;;17.58;100.00;99329.75;105745;1254;73489;-50
2023/07/31 03:35:51;;;;;;;3.00;1.00;;;;;;;17.65;100.00;99331.42;104982;1254;68240;-50
2023/07/31 03:38:18;;;;;;;2.10;1.00;;;;;;;17.71;100.00;99331.30;106209;1259;72423;-50
2023/07/31 03:40:45;;;;;;;1.50;1.10;;;;;;;17.76;100.00;99330.47;104946;1254;60437;-48
2023/07/31 03:43:13;;;;;;;2.30;1.10;;;;;;;17.81;100.00;99330.05;104846;1254;59650;-50
2023/07/31 03:45:40;;;;;;;3.10;1.00;;;;;;;17.84;100.00;99317.11;104860;1253;73010;-49
2023/07/31 03:48:07;;;;;;;2.50;1.80;;;;;;;17.87;100.00;99319.35;104925;1257;66615;-49
2023/07/31 03:50:35;;;;;;;2.30;1.50;;;;;;;17.91;100.00;99323.20;104934;1254;72649;-50
2023/07/31 03:53:02;;;;;;;2.00;1.30;;;;;;;17.96;100.00;99328.94;104881;1254;60436;-49
2023/07/31 03:55:29;;;;;;;2.50;1.70;;;;;;;18.01;100.00;99329.98;104707;1257;60028;-49
2023/07/31 03:57:57;;;;;;;4.60;1.40;;;;;;;18.06;100.00;99329.91;104313;1253;73440;-49
2023/07/31 04:00:24;;;;;;;4.40;2.50;;;;;;;18.08;100.00;99330.05;104484;1253;66469;-49
2023/07/31 04:02:51;;;;;;;5.10;1.70;;;;;;;18.10;100.00;99327.75;104257;1254;72641;-51
2023/07/31 04:05:19;;;;;;;1.60;1.50;;;;;;;18.11;100.00;99330.20;104473;1256;60402;-49
2023/07/31 04:07:46;;;;;;;1.90;1.70;;;;;;;18.10;100.00;99337.31;104325;1254;59346;-49
2023/07/31 04:10:14;;;;;;;1.30;1.20;;;;;;;18.09;100.00;99334.66;104811;1254;74875;-49
2023/07/31 04:12:41;;;;;;;3.50;1.60;;;;;;;18.08;100.00;99339.14;104933;1254;67732;-50
2023/07/31 04:15:09;;;;;;;1.80;1.70;;;;;;;18.08;100.00;99338.95;104940;1254;72461;-50
2023/07/31 04:17:36;;;;;;;3.30;1.70;;;;;;;18.09;100.00;99338.17;104898;1254;62239;-49
2023/07/31 04:20:05;;;;;;;1.60;1.50;;;;;;;18.09;100.00;99336.71;106435;1254;59991;-49
2023/07/31 04:22:32;;;;;;;1.90;1.80;;;;;;;18.10;100.00;99338.42;104957;1254;73000;-50
2023/07/31 04:25:00;;;;;;;1.90;1.80;;;;;;;18.11;100.00;99332.69;105005;1254;68108;-49
2023/07/31 04:27:27;;;;;;;1.40;1.30;;;;;;;18.13;100.00;99340.31;104886;1257;71381;-48
2023/07/31 04:29:54;;;;;;;2.00;1.70;;;;;;;18.14;100.00;99341.54;104813;1254;61201;-50
2023/07/31 04:32:22;;;;;;;1.90;1.70;;;;;;;18.14;100.00;99337.86;104826;1259;61998;-48
2023/07/31 04:34:49;;;;;;;3.60;1.60;;;;;;;18.15;100.00;99336.52;104840;1254;72996;-48
2023/07/31 04:37:16;;;;;;;1.30;1.20;;;;;;;18.14;100.00;99336.95;104736;1254;67513;-50
2023/07/31 04:39:44;;;;;;;1.70;1.60;;;;;;;18.15;100.00;99339.85;104643;1254;72663;-50
2023/07/31 04:42:11;;;;;;;1.80;1.70;;;;;;;18.15;100.00;99340.17;104908;1259;60409;-53
2023/07/31 04:44:38;;;;;;;1.90;1.80;;;;;;;18.16;100.00;99342.30;104888;1257;59691;-49
2023/07/31 04:47:06;;;;;;;1.80;1.70;;;;;;;18.17;100.00;99343.70;104727;1254;71755;-48
2023/07/31 04:49:33;;;;;;;2.60;1.70;;;;;;;18.18;100.00;99345.27;104974;1259;66587;-51
2023/07/31 04:52:00;;;;;;;1.80;1.70;;;;;;;18.17;100.00;99350.77;104743;1259;72695;-50
2023/07/31 04:54:28;;;;;;;1.20;1.10;;;;;;;18.18;100.00;99348.29;104668;1254;61676;-49
2023/07/31 04:56:55;;;;;;;1.50;1.40;;;;;;;18.22;100.00;99350.48;105328;1254;59515;-50
2023/07/31 04:59:22;;;;;;;1.60;1.50;;;;;;;18.26;100.00;99353.97;104925;1254;71559;-49
2023/07/31 05:01:50;;;;;;;1.70;1.60;;;;;;;18.30;100.00;99358.48;104873;1256;67925;-50
2023/07/31 05:04:17;;;;;;;1.70;1.60;;;;;;;18.34;100.00;99363.29;104912;1259;72645;-50
2023/07/31 05:06:45;;;;;;;1.90;1.50;;;;;;;18.35;100.00;99365.34;104891;1254;60357;-49
2023/07/31 05:09:12;;;;;;;1.50;1.40;;;;;;;18.38;100.00;99369.21;104914;1258;60748;-49
2023/07/31 05:11:42;;;;;;;1.90;1.60;;;;;;;18.42;100.00;99375.41;104926;1259;72949;-49
2023/07/31 05:14:10;;;;;;;2.20;2.10;;;;;;;18.46;100.00;99379.45;104819;1254;69993;-50
2023/07/31 05:16:37;;;;;;;1.90;1.80;;;;;;;18.48;100.00;99377.83;104873;1254;72721;-50
2023/07/31 05:19:05;;;;;;;2.30;2.20;;;;;;;18.48;100.00;99381.96;104995;1254;60889;-50
2023/07/31 05:21:33;;;;;;;2.10;2.00;;;;;;;18.49;100.00;99381.00;104933;1252;61953;-49
2023/07/31 05:24:00;;;;;;;2.80;2.60;;;;;;;18.50;100.00;99377.65;104946;1257;73437;-50
2023/07/31 05:26:27;;;;;;;2.00;1.90;;;;;;;18.52;100.00;99378.05;104922;1256;68741;-51
2023/07/31 05:28:55;;;;;;;1.90;1.60;;;;;;;18.51;100.00;99380.05;105007;1257;72021;-51
2023/07/31 05:31:23;;;;;;;2.00;1.90;;;;;;;18.52;100.00;99376.04;105014;1255;60555;-50
2023/07/31 05:33:51;;;;;;;2.20;2.00;;;;;;;18.55;100.00;99376.67;109078;1254;60843;-49
2023/07/31 05:36:18;;;;;;;2.80;2.70;;;;;;;18.57;100.00;99371.24;109148;1254;74202;-50
2023/07/31 05:38:46;;;;;;;2.40;2.20;;;;;;;18.59;100.00;99373.85;109031;1254;66665;-50
2023/07/31 05:41:13;;;;;;;2.30;2.20;;;;;;;18.62;100.00;99376.85;109050;1254;71364;-50
2023/07/31 05:43:40;;;;;;;2.30;2.10;;;;;;;18.66;100.00;99376.84;109123;1252;60438;-51
2023/07/31 05:46:09;;;;;;;2.90;2.50;;;;;;;18.70;100.00;99378.63;109132;1258;58784;-51
2023/07/31 05:48:36;;;;;;;2.60;2.50;;;;;;;18.75;100.00;99380.02;109137;1252;74388;-50
2023/07/31 05:51:04;;;;;;;1.80;1.70;;;;;;;18.80;100.00;99374.54;109083;1254;68046;-50
2023/07/31 05:53:31;;;;;;;1.90;1.80;;;;;;;18.83;100.00;99378.58;109199;1252;71162;-50
2023/07/31 05:55:58;;;;;;;2.00;1.70;;;;;;;18.85;100.00;99378.20;109081;1253;60393;-50
2023/07/31 05:58:25;;;;;;;2.30;2.10;;;;;;;18.89;100.00;99379.35;109004;1253;58777;-50
2023/07/31 06:00:53;;;;;;;2.00;1.90;;;;;;;18.93;100.00;99380.46;109063;1253;73843;-50
2023/07/31 06:03:21;;;;;;;2.20;2.10;;;;;;;18.97;100.00;99379.61;108996;1254;66282;-50
2023/07/31 06:05:49;;;;;;;3.10;1.90;;;;;;;18.99;100.00;99381.58;109019;1254;72441;-49
2023/07/31 06:08:17;;;;;;;1.90;1.80;;;;;;;18.99;100.00;99380.27;109076;1254;59428;-50
2023/07/31 06:10:44;;;;;;;1.80;1.70;;;;;;;19.01;100.00;99380.69;109064;1254;60054;-50
2023/07/31 06:13:11;;;;;;;1.90;1.80;;;;;;;19.04;100.00;99383.66;108865;1254;72625;-50
2023/07/31 06:15:39;;;;;;;2.70;2.60;;;;;;;19.09;100.00;99386.11;109169;1257;68117;-50
2023/07/31 06:18:07;;;;;;;2.20;2.10;;;;;;;19.11;100.00;99387.00;105504;1255;72655;-48
2023/07/31 06:20:35;;;;;;;3.10;2.70;;;;;;;19.14;100.00;99388.70;104844;1254;60546;-48
2023/07/31 06:23:03;;;;;;;3.90;3.70;;;;;;;19.18;100.00;99391.25;104884;1254;60664;-48
2023/07/31 06:25:31;;;;;;;4.40;4.10;;;;;;;19.22;100.00;99390.20;104934;1258;73822;-49
2023/07/31 06:27:58;;;;;;;5.40;5.10;;;;;;;19.24;100.00;99388.31;104783;1260;67517;-49
2023/07/31 06:30:25;;;;;;;5.00;4.70;;;;;;;19.25;100.00;99389.54;104924;1253;72654;-48
2023/07/31 06:32:53;;;;;;;4.80;4.50;;;;;;;19.26;100.00;99393.43;104895;1254;61612;-47
2023/07/31 06:35:20;;;;;;;4.80;4.60;;;;;;;19.28;100.00;99390.95;104933;1254;60754;-48
2023/07/31 06:37:48;;;;;;;5.70;5.40;;;;;;;19.30;100.00;99392.96;104902;1254;74248;-48
2023/07/31 06:40:15;;;;;;;5.50;5.10;;;;;;;19.34;100.00;99395.89;104999;1259;67717;-48
2023/07/31 06:42:42;;;;;;;5.40;4.50;;;;;;;19.36;100.00;99396.63;104982;1253;71164;-48
2023/07/31 06:45:10;;;;;;;4.90;4.70;;;;;;;19.38;100.00;99396.77;104929;1254;61871;-50
2023/07/31 06:47:37;;;;;;;5.60;5.30;;;;;;;19.41;100.00;99395.04;104787;1254;60593;-49
2023/07/31 06:50:05;;;;;;;5.20;4.80;;;;;;;19.45;100.00;99394.85;104712;1257;73815;-50
2023/07/31 06:52:33;;;;;;;5.30;4.90;;;;;;;19.48;100.00;99397.34;106223;1257;66323;-49
2023/07/31 06:55:04;;;;;;;5.60;5.10;;;;;;;19.51;100.00;99397.77;104829;1254;72811;-50
2023/07/31 06:57:31;;;;;;;5.30;5.00;;;;;;;19.57;100.00;99400.35;104874;1256;60549;-50
2023/07/31 06:59:59;;;;;;;5.40;5.10;;;;;;;19.62;100.00;99400.17;104955;1254;60561;-49
2023/07/31 07:02:26;;;;;;;5.30;4.90;;;;;;;19.67;100.00;99405.23;104660;1258;72575;-50
2023/07/31 07:04:54;;;;;;;4.40;4.20;;;;;;;19.72;100.00;99401.38;104783;1254;66698;-50
2023/07/31 07:07:21;;;;;;;4.20;4.00;;;;;;;19.76;100.00;99398.01;104781;1259;72636;-50
2023/07/31 07:09:48;;;;;;;4.90;4.70;;;;;;;19.82;100.00;99400.59;105058;1257;60552;-50
2023/07/31 07:12:16;;;;;;;4.10;3.90;;;;;;;19.87;100.00;99400.68;104821;1259;60552;-48
2023/07/31 07:14:45;;;;;;;5.80;5.40;;;;;;;19.93;100.00;99401.20;104719;1253;72649;-50
2023/07/31 07:17:13;;;;;;;4.00;3.90;;;;;;;19.98;100.00;99391.96;106016;1254;65300;-51
2023/07/31 07:19:41;;;;;;;4.30;4.10;;;;;;;20.04;100.00;99387.24;105160;1254;70467;-50
2023/07/31 07:22:09;;;;;;;4.90;4.70;;;;;;;20.10;100.00;99378.82;105403;1259;61628;-51
2023/07/31 07:24:37;;;;;;;4.60;4.40;;;;;;;20.17;100.00;99372.49;104954;1251;60720;-50
2023/07/31 07:27:05;;;;;;;4.50;4.30;;;;;;;20.25;100.00;99365.27;105030;1256;74035;-50
2023/07/31 07:29:34;;;;;;;5.00;4.80;;;;;;;20.31;100.00;99359.38;105109;1254;66971;-51
2023/07/31 07:32:01;;;;;;;5.00;4.70;;;;;;;20.37;100.00;99357.19;104964;1253;71420;-51
2023/07/31 07:34:28;;;;;;;4.80;4.50;;;;;;;20.43;100.00;99359.36;104682;1254;61630;-50
2023/07/31 07:36:56;;;;;;;5.50;5.20;;;;;;;20.48;100.00;99357.30;104858;1254;61558;-49
2023/07/31 07:39:23;;;;;;;6.00;5.60;;;;;;;20.51;100.00;99356.73;104953;1259;74360;-51
2023/07/31 07:41:50;;;;;;;7.00;6.60;;;;;;;20.54;100.00;99353.16;104727;1257;69672;-51
2023/07/31 07:44:18;;;;;;;5.00;4.70;;;;;;;20.58;100.00;99356.21;104607;1254;70753;-51
2023/07/31 07:46:45;;;;;;;7.30;6.90;;;;;;;20.63;100.00;99359.45;104830;1257;62224;-51
2023/07/31 07:49:13;;;;;;;7.50;7.10;;;;;;;20.65;100.00;99363.05;104855;1254;60428;-50
2023/07/31 07:51:40;;;;;;;7.30;6.90;;;;;;;20.66;100.00;99360.23;104416;1254;73777;-49
2023/07/31 07:54:08;;;;;;;8.90;8.20;;;;;;;20.68;100.00;99365.67;108956;1253;67879;-51
2023/07/31 07:56:36;;;;;;;9.60;8.90;;;;;;;20.69;100.00;99367.71;106622;1257;73266;-49
2023/07/31 07:59:04;;;;;;;10.00;9.30;;;;;;;20.70;100.00;99367.43;106894;1254;60904;-50
2023/07/31 08:01:32;;;;;;;9.90;9.10;;;;;;;20.71;100.00;99366.08;104685;1259;60482;-49
2023/07/31 08:04:00;;;;;;;10.60;9.90;;;;;;;20.72;100.00;99369.30;104530;1253;73784;-48
2023/07/31 08:06:29;;;;;;;11.90;10.50;;;;;;;20.73;100.00;99364.82;104808;1257;66787;-49
2023/07/31 08:08:56;;;;;;;10.80;10.10;;;;;;;20.76;100.00;99365.95;104898;1255;71563;-50
2023/07/31 08:11:24;;;;;;;10.90;10.10;;;;;;;20.80;100.00;99368.73;104767;1254;61038;-50
2023/07/31 08:13:51;;;;;;;11.40;10.60;;;;;;;20.85;100.00;99371.37;104749;1255;60494;-49
2023/07/31 08:16:18;;;;;;;11.20;10.50;;;;;;;20.91;100.00;99382.65;104843;1255;72555;-49
2023/07/31 08:18:46;;;;;;;10.80;10.00;;;;;;;20.96;100.00;99381.56;104978;1259;67915;-49
2023/07/31 08:21:13;;;;;;;11.10;10.30;;;;;;;20.99;100.00;99379.66;104981;1259;71684;-50
2023/07/31 08:23:41;;;;;;;9.20;8.80;;;;;;;21.01;100.00;99384.69;105042;1254;61744;-52
2023/07/31 08:26:08;;;;;;;10.40;9.90;;;;;;;21.04;100.00;99388.41;104965;1257;60292;-51
2023/07/31 08:28:36;;;;;;;10.60;9.80;;;;;;;21.07;100.00;99391.06;104819;1254;72554;-50
2023/07/31 08:31:04;;;;;;;10.70;10.10;;;;;;;21.10;100.00;99391.79;105534;1257;67287;-51
2023/07/31 08:33:31;;;;;;;9.30;8.80;;;;;;;21.14;100.00;99392.02;104767;1254;71797;-52
2023/07/31 08:35:59;;;;;;;9.40;8.90;;;;;;;21.19;100.00;99395.77;104997;1254;60764;-51
2023/07/31 08:38:26;;;;;;;9.10;8.60;;;;;;;21.24;100.00;99400.37;105083;1260;60536;-51
2023/07/31 08:40:54;;;;;;;8.00;7.60;;;;;;;21.30;100.00;99399.45;105022;1254;73820;-50
2023/07/31 08:43:21;;;;;;;6.50;6.20;;;;;;;21.30;100.00;99401.04;104994;1259;65507;-51
2023/07/31 08:45:49;;;;;;;6.40;6.10;;;;;;;21.28;100.00;99405.06;104799;1254;72901;-50
2023/07/31 08:48:17;;;;;;;6.00;5.70;;;;;;;21.30;100.00;99409.85;104705;1254;60446;-51
2023/07/31 08:50:44;;;;;;;7.00;6.70;;;;;;;21.34;100.00;99413.61;104670;1254;60856;-52
2023/07/31 08:53:12;;;;;;;7.20;6.80;;;;;;;21.38;100.00;99419.21;104758;1257;74223;-50
2023/07/31 08:55:39;;;;;;;7.90;7.50;;;;;;;21.43;100.00;99425.65;104867;1255;66781;-50
2023/07/31 08:58:06;;;;;;;7.20;7.00;;;;;;;21.46;100.00;99424.80;104627;1259;72766;-50
2023/07/31 09:00:34;;;;;;;7.50;7.20;;;;;;;21.48;100.00;99422.23;104754;1259;62147;-50
2023/07/31 09:03:09;;;;;;;8.90;8.20;;;;;;;21.51;100.00;99422.89;104836;1251;60527;-50
2023/07/31 09:05:36;;;;;;;8.40;7.80;;;;;;;21.56;100.00;99430.23;108889;1254;72547;-51
2023/07/31 09:08:04;;;;;;;7.90;7.50;;;;;;;21.60;100.00;99433.69;108965;1254;68772;-52
2023/07/31 09:10:31;;;;;;;6.70;6.40;;;;;;;21.61;100.00;99433.06;108942;1254;71456;-52
2023/07/31 09:12:58;;;;;;;7.90;7.50;;;;;;;21.60;100.00;99430.60;109107;1251;60375;-51
2023/07/31 09:15:27;;;;;;;8.50;8.10;;;;;;;21.61;100.00;99431.96;109043;1254;59445;-51
2023/07/31 09:18:05;;;;;;;8.00;7.60;;;;;;;21.63;100.00;99438.44;109018;1259;74695;-52
2023/07/31 09:20:33;;;;;;;9.00;8.40;;;;;;;21.65;100.00;99437.56;109120;1254;68862;-51
2023/07/31 09:23:09;;;;;;;8.50;7.90;;;;;;;21.68;100.00;99438.16;108928;1253;71903;-51
2023/07/31 09:25:36;;;;;;;8.90;8.50;;;;;;;21.71;100.00;99444.05;109090;1254;61698;-51
2023/07/31 09:28:07;;;;;;;8.40;7.90;;;;;;;21.74;100.00;99447.08;109091;1257;60633;-51
2023/07/31 09:30:50;;;;;;;9.80;9.20;;;;;;;21.79;100.00;99445.86;108668;1254;73222;-50
2023/07/31 09:33:18;;;;;;;8.20;7.80;;;;;;;21.85;100.00;99449.40;104516;1254;66879;-52
2023/07/31 09:35:47;;;;;;;8.90;8.30;;;;;;;21.92;100.00;99449.52;104554;1253;73263;-52
2023/07/31 09:38:15;;;;;;;9.00;8.50;;;;;;;21.95;100.00;99453.77;108855;1253;62581;-51
2023/07/31 09:40:44;;;;;;;9.10;8.40;;;;;;;21.98;100.00;99450.73;105734;1255;60565;-51
2023/07/31 09:43:13;;;;;;;7.60;7.30;;;;;;;22.01;100.00;99451.64;104635;1257;72258;-50
2023/07/31 09:45:42;;;;;;;8.60;7.90;;;;;;;22.07;100.00;99455.07;104545;1259;67153;-51
2023/07/31 09:48:15;;;;;;;8.90;8.50;;;;;;;22.14;100.00;99453.90;105755;1255;71500;-51
2023/07/31 09:50:44;;;;;;;8.80;8.00;;;;;;;22.19;100.00;99453.14;108984;1253;60385;-52
2023/07/31 09:53:12;;;;;;;7.90;7.50;;;;;;;22.25;100.00;99449.81;107396;1255;60542;-51
2023/07/31 09:55:40;;;;;;;7.40;7.00;;;;;;;22.32;100.00;99452.04;104665;1258;72655;-49
2023/07/31 09:58:08;;;;;;;6.90;6.40;;;;;;;22.39;100.00;99448.18;109050;1254;65502;-52
2023/07/31 10:00:36;;;;;;;6.80;6.50;;;;;;;22.47;100.00;99451.23;106773;1259;72666;-50
2023/07/31 10:03:10;;;;;;;9.30;8.50;;;;;;;22.55;100.00;99452.00;105808;1258;61724;-50
2023/07/31 10:05:49;;;;;;;8.20;7.60;;;;;;;22.64;100.00;99459.32;105152;1260;60453;-51
2023/07/31 10:08:18;;;;;;;7.70;7.30;;;;;;;22.73;100.00;99469.19;104705;1260;72777;-51
2023/07/31 10:10:45;;;;;;;8.10;7.60;;;;;;;22.80;100.00;99472.63;104749;1259;65647;-51
2023/07/31 10:13:13;;;;;;;6.90;6.50;;;;;;;22.82;100.00;99467.33;104772;1257;72423;-51
2023/07/31 10:15:41;;;;;;;7.80;7.30;;;;;;;22.84;100.00;99472.63;104620;1257;60572;-49
2023/07/31 10:18:09;;;;;;;5.50;5.20;;;;;;;22.87;100.00;99473.00;109095;1253;60220;-52
2023/07/31 10:20:36;;;;;;;5.00;4.80;;;;;;;22.88;100.00;99472.91;107831;1254;73281;-51
2023/07/31 10:23:04;;;;;;;5.60;5.20;;;;;;;22.88;100.00;99473.66;106768;1253;66794;-50
2023/07/31 10:25:31;;;;;;;5.40;5.10;;;;;;;22.93;100.00;99479.73;104838;1254;72754;-51
2023/07/31 10:27:59;;;;;;;5.80;5.20;;;;;;;22.99;100.00;99476.70;105070;1259;60504;-50
2023/07/31 10:30:27;;;;;;;5.70;5.30;;;;;;;23.04;100.00;99476.64;104976;1254;60559;-52
2023/07/31 10:32:55;;;;;;;4.60;4.30;;;;;;;23.05;100.00;99481.63;105707;1256;73116;-51
2023/07/31 10:35:22;;;;;;;4.50;4.30;;;;;;;23.05;100.00;99477.77;104855;1258;68307;-50
2023/07/31 10:37:50;;;;;;;4.40;4.10;;;;;;;23.06;100.00;99475.27;104802;1261;72644;-51
2023/07/31 10:40:25;;;;;;;4.00;3.80;;;;;;;23.09;100.00;99478.59;104877;1254;61692;-50
2023/07/31 10:42:54;;;;;;;4.50;4.20;;;;;;;23.13;100.00;99487.75;106603;1255;60573;-52
2023/07/31 10:45:31;;;;;;;4.70;4.40;;;;;;;23.17;100.00;99494.98;105564;1258;73814;-51
2023/07/31 10:48:02;;;;;;;4.80;4.60;;;;;;;23.19;100.00;99506.61;104909;1257;66905;-51
2023/07/31 10:50:32;;;;;;;5.40;5.10;;;;;;;23.23;100.00;99508.44;104959;1254;72996;-51
2023/07/31 10:53:00;;;;;;;5.90;5.50;;;;;;;23.28;100.00;99507.73;105326;1260;60449;-51
2023/07/31 10:55:39;;;;;;;4.80;4.60;;;;;;;23.32;100.00;99502.13;104865;1255;60513;-51
2023/07/31 10:58:12;;;;;;;4.60;4.30;;;;;;;23.37;100.00;99507.30;104996;1254;73858;-50
2023/07/31 11:00:43;;;;;;;5.50;5.20;;;;;;;23.40;100.00;99504.55;105054;1254;66806;-52
2023/07/31 11:03:18;;;;;;;4.30;4.10;;;;;;;23.40;100.00;99511.04;105387;1254;71200;-51
2023/07/31 11:05:48;;;;;;;4.50;4.20;;;;;;;23.43;100.00;99515.70;105061;1260;60658;-52
2023/07/31 11:08:20;;;;;;;4.80;4.40;;;;;;;23.47;100.00;99516.97;104934;1260;60918;-52
2023/07/31 11:11:04;;;;;;;4.50;4.20;;;;;;;23.47;100.00;99516.70;105305;1258;72844;-52
2023/07/31 11:13:50;;;;;;;5.30;5.00;;;;;;;23.51;100.00;99512.42;105067;1256;66967;-51
2023/07/31 11:16:19;;;;;;;4.70;4.50;;;;;;;23.57;100.00;99509.98;104929;1254;72689;-51
2023/07/31 11:18:48;;;;;;;5.20;4.90;;;;;;;23.63;100.00;99514.66;105333;1259;60434;-51
2023/07/31 11:21:19;;;;;;;5.90;5.60;;;;;;;23.68;100.00;99518.67;104846;1253;60430;-51
2023/07/31 11:23:48;;;;;;;5.30;4.90;;;;;;;23.72;100.00;99525.58;105323;1255;72529;-52